Time;durP1;ratioP1;P1;durP2;ratioP2;P2;SDS_P1;SDS_P2;PMS_P1;PMS_P2;Temp;Humidity;BMP_temperature;BMP_pressure;BME280_temperature;BME280_humidity;BME280_pressure;Samples;Min_cycle;Max_cycle;Signal;HPM_P1;HPM_P2
2021/12/09 00:01:53;;;;;;;57.40;52.00;;;;;;;-4.42;88.83;97046.92;106253;1317;23342;-59
2021/12/09 00:04:29;;;;;;;51.20;46.50;;;;;;;-4.43;88.88;97042.98;106370;1315;22509;-60
2021/12/09 00:06:59;;;;;;;52.50;47.50;;;;;;;-4.42;88.96;97037.83;106356;1316;23306;-60
2021/12/09 00:09:28;;;;;;;54.20;49.30;;;;;;;-4.41;88.89;97035.23;106207;1322;22491;-60
2021/12/09 00:11:58;;;;;;;55.90;51.00;;;;;;;-4.42;88.93;97027.42;106243;1321;22500;-60
2021/12/09 00:14:32;;;;;;;54.70;49.60;;;;;;;-4.41;88.95;97025.88;106280;1318;22617;-60
2021/12/09 00:17:08;;;;;;;53.20;48.20;;;;;;;-4.41;88.78;97028.71;106261;1318;23266;-58
2021/12/09 00:19:38;;;;;;;51.60;46.90;;;;;;;-4.43;88.81;97031.88;106296;1322;22443;-59
2021/12/09 00:22:11;;;;;;;55.90;50.70;;;;;;;-4.38;88.87;97028.48;106388;1317;22506;-60
2021/12/09 00:24:42;;;;;;;51.90;47.20;;;;;;;-4.33;88.92;97029.65;106257;1323;23194;-60
2021/12/09 00:27:13;;;;;;;50.00;45.50;;;;;;;-4.34;88.87;97023.92;106386;1320;22421;-59
2021/12/09 00:29:44;;;;;;;59.10;53.90;;;;;;;-4.38;88.95;97020.82;106286;1317;22390;-59
2021/12/09 00:32:13;;;;;;;48.90;44.50;;;;;;;-4.39;89.03;97025.49;106289;1318;23108;-60
2021/12/09 00:34:47;;;;;;;50.00;45.60;;;;;;;-4.40;88.97;97024.44;106326;1317;22372;-60
2021/12/09 00:39:51;;;;;;;49.80;45.30;;;;;;;-4.32;88.97;97011.48;106323;1316;22630;-59
2021/12/09 00:42:25;;;;;;;49.70;45.20;;;;;;;-4.33;88.98;97010.35;106293;1317;23131;-59
2021/12/09 00:44:56;;;;;;;;;;;;;;;-4.36;89.07;97007.64;106315;1314;22524;-59
2021/12/09 00:47:26;;;;;;;50.70;46.00;;;;;;;-4.38;89.09;97003.61;106264;1316;22482;-58
2021/12/09 00:49:56;;;;;;;49.20;44.80;;;;;;;-4.35;89.17;97009.41;106293;1322;22501;-58
2021/12/09 00:52:27;;;;;;;48.40;44.00;;;;;;;-4.32;89.11;97006.86;106301;1316;22544;-58
2021/12/09 00:54:58;;;;;;;51.10;46.60;;;;;;;-4.28;89.12;97005.06;106289;1316;22498;-58
2021/12/09 00:57:30;;;;;;;55.70;50.70;;;;;;;-4.28;89.14;97006.11;106299;1315;22436;-57
2021/12/09 01:00:10;;;;;;;52.00;47.30;;;;;;;-4.29;89.18;97004.70;106329;1321;23295;-57
2021/12/09 01:02:38;;;;;;;49.20;44.50;;;;;;;-4.27;89.15;97004.43;106298;1323;22444;-58
2021/12/09 01:05:07;;;;;;;49.10;44.80;;;;;;;-4.25;89.18;97003.45;106272;1323;22525;-58
2021/12/09 01:07:37;;;;;;;49.80;45.30;;;;;;;-4.21;89.14;96991.23;106294;1323;22714;-57
2021/12/09 01:10:08;;;;;;;50.30;45.70;;;;;;;-4.20;89.25;96980.84;106271;1323;22467;-57
2021/12/09 01:12:36;;;;;;;52.60;47.80;;;;;;;-4.23;89.18;96975.35;106299;1323;23142;-57
2021/12/09 01:15:08;;;;;;;56.90;51.70;;;;;;;-4.25;89.14;96972.76;106314;1323;22299;-57
2021/12/09 01:17:36;;;;;;;75.70;68.40;;;;;;;-4.25;89.23;96970.05;106247;1323;23137;-58
2021/12/09 01:20:07;;;;;;;61.00;55.30;;;;;;;-4.20;89.26;96976.00;106302;1323;22479;-57
2021/12/09 01:22:45;;;;;;;72.70;66.30;;;;;;;-4.16;89.20;96969.62;106281;1323;22438;-58
2021/12/09 01:25:17;;;;;;;58.50;53.20;;;;;;;-4.15;89.23;96965.95;106280;1323;22522;-58
2021/12/09 01:27:47;;;;;;;58.10;52.70;;;;;;;-4.16;89.25;96960.58;106300;1323;22538;-58
2021/12/09 01:30:18;;;;;;;63.20;57.50;;;;;;;-4.17;89.34;96964.77;106307;1323;23550;-58
2021/12/09 01:32:51;;;;;;;55.40;50.50;;;;;;;-4.15;89.27;96956.04;106300;1323;22416;-58
2021/12/09 01:35:28;;;;;;;54.00;49.20;;;;;;;-4.08;89.34;96954.11;106296;1323;22490;-59
2021/12/09 01:37:59;;;;;;;53.80;49.00;;;;;;;-4.05;89.21;96946.56;106314;1322;22501;-59
2021/12/09 01:40:29;;;;;;;58.80;53.60;;;;;;;-4.06;89.34;96945.33;106282;1323;22630;-58
2021/12/09 01:42:58;;;;;;;59.30;54.00;;;;;;;-4.06;89.35;96948.20;106284;1323;22544;-58
2021/12/09 01:45:26;;;;;;;54.60;49.60;;;;;;;-4.05;89.43;96948.19;106303;1323;22487;-57
2021/12/09 01:47:55;;;;;;;51.20;46.60;;;;;;;-4.04;89.29;96955.95;106318;1323;23265;-58
2021/12/09 01:50:24;;;;;;;50.90;46.20;;;;;;;-4.03;89.29;96961.60;106000;1323;407124;-58
2021/12/09 01:52:52;;;;;;;51.00;46.40;;;;;;;-4.00;89.35;96960.90;106307;1323;23246;-58
2021/12/09 01:55:21;;;;;;;56.20;51.10;;;;;;;-3.96;89.37;96959.08;106295;1322;23138;-58
2021/12/09 01:57:51;;;;;;;56.30;51.10;;;;;;;-3.93;89.29;96955.66;106286;1323;22581;-58
2021/12/09 02:00:26;;;;;;;57.00;51.80;;;;;;;-3.96;89.29;96950.87;106267;1323;22395;-58
2021/12/09 02:02:55;;;;;;;54.50;49.40;;;;;;;-3.98;89.26;96951.52;106319;1323;22603;-58
2021/12/09 02:05:27;;;;;;;54.00;49.00;;;;;;;-3.96;89.33;96950.98;106293;1321;23143;-59
2021/12/09 02:07:56;;;;;;;55.20;50.00;;;;;;;-3.93;89.30;96956.25;106282;1323;23245;-59
2021/12/09 02:10:24;;;;;;;59.30;53.90;;;;;;;-3.88;89.34;96955.67;106336;1323;23126;-60
2021/12/09 02:12:53;;;;;;;61.10;55.50;;;;;;;-3.82;89.33;96956.77;106291;1323;22555;-59
2021/12/09 02:15:23;;;;;;;64.40;58.60;;;;;;;-3.76;89.31;96957.21;106292;1323;22400;-58
2021/12/09 02:17:51;;;;;;;64.40;58.50;;;;;;;-3.74;89.24;96957.34;106281;1323;23327;-60
2021/12/09 02:20:19;;;;;;;57.40;52.20;;;;;;;-3.76;89.12;96953.31;106275;1323;22483;-59
2021/12/09 02:22:48;;;;;;;56.50;51.20;;;;;;;-3.78;89.30;96959.17;106293;1323;22467;-59
2021/12/09 02:25:17;;;;;;;58.20;52.80;;;;;;;-3.77;89.21;96961.91;106285;1317;23239;-59
2021/12/09 02:27:46;;;;;;;56.20;51.20;;;;;;;-3.76;89.22;96955.16;106335;1323;24195;-59
2021/12/09 02:30:14;;;;;;;61.00;55.20;;;;;;;-3.75;89.21;96954.65;106319;1322;23161;-59
2021/12/09 02:32:43;;;;;;;60.70;55.20;;;;;;;-3.78;89.21;96959.42;106299;1323;22471;-59
2021/12/09 02:35:11;;;;;;;56.90;51.50;;;;;;;-3.81;89.17;96958.09;106335;1323;22417;-59
2021/12/09 02:37:39;;;;;;;59.80;54.20;;;;;;;-3.82;89.15;96951.88;106270;1323;22987;-59
2021/12/09 02:40:09;;;;;;;62.40;56.60;;;;;;;-3.79;89.23;96954.67;106297;1323;23136;-59
2021/12/09 02:42:37;;;;;;;63.80;58.10;;;;;;;-3.76;89.17;96959.47;106298;1323;22419;-59
2021/12/09 02:45:08;;;;;;;62.40;56.40;;;;;;;-3.75;89.13;96966.16;106319;1319;22600;-59
2021/12/09 02:47:36;;;;;;;58.30;52.90;;;;;;;-3.76;89.36;96967.31;106301;1323;23084;-59
2021/12/09 02:50:05;;;;;;;57.10;51.90;;;;;;;-3.74;89.17;96968.09;106324;1323;22573;-59
2021/12/09 02:52:33;;;;;;;56.90;51.70;;;;;;;-3.72;89.19;96962.61;106297;1321;22474;-59
2021/12/09 02:55:03;;;;;;;62.40;56.90;;;;;;;-3.65;89.24;96965.02;106294;1323;22399;-59
2021/12/09 02:57:32;;;;;;;57.00;51.70;;;;;;;-3.60;89.16;96965.07;106303;1323;22563;-59
2021/12/09 03:00:00;;;;;;;57.50;52.30;;;;;;;-3.58;89.14;96966.70;106329;1322;22495;-59
2021/12/09 03:02:28;;;;;;;59.40;53.80;;;;;;;-3.59;89.07;96959.56;106306;1322;22567;-59
2021/12/09 03:04:59;;;;;;;58.10;52.60;;;;;;;-3.62;89.10;96958.89;106310;1323;22291;-59
2021/12/09 03:07:37;;;;;;;56.60;51.40;;;;;;;-3.67;89.00;96951.36;106325;1323;23398;-59
2021/12/09 03:10:26;;;;;;;55.10;50.00;;;;;;;-3.66;89.17;96940.05;106318;1322;22488;-59
2021/12/09 03:12:57;;;;;;;57.20;51.80;;;;;;;-3.64;89.10;96932.92;106323;1322;22478;-58
2021/12/09 03:15:26;;;;;;;58.80;53.30;;;;;;;-3.66;89.01;96927.77;106305;1322;22454;-59
2021/12/09 03:17:54;;;;;;;54.90;49.70;;;;;;;-3.69;89.12;96930.09;106261;1323;22479;-59
2021/12/09 03:20:22;;;;;;;54.00;48.60;;;;;;;-3.68;89.06;96931.00;106309;1322;23889;-58
2021/12/09 03:22:50;;;;;;;50.90;46.20;;;;;;;-3.69;89.03;96927.90;106295;1323;22505;-58
2021/12/09 03:25:19;;;;;;;57.80;52.60;;;;;;;-3.67;89.04;96922.92;106298;1323;22466;-59
2021/12/09 03:27:49;;;;;;;56.50;51.20;;;;;;;-3.66;89.10;96929.05;106271;1323;22502;-59
2021/12/09 03:30:18;;;;;;;58.50;53.10;;;;;;;-3.65;89.12;96934.02;106252;1323;22497;-59
2021/12/09 03:32:47;;;;;;;54.40;49.20;;;;;;;-3.61;89.24;96939.84;106284;1323;22483;-58
2021/12/09 03:35:15;;;;;;;51.80;47.10;;;;;;;-3.58;89.01;96941.42;106294;1323;22854;-59
2021/12/09 03:37:44;;;;;;;54.90;49.80;;;;;;;-3.54;89.08;96947.92;106326;1323;23276;-58
2021/12/09 03:40:14;;;;;;;63.00;56.80;;;;;;;-3.47;88.99;96957.91;106314;1323;23179;-59
2021/12/09 03:42:43;;;;;;;60.40;55.00;;;;;;;-3.41;89.10;96961.95;106297;1323;22530;-59
2021/12/09 03:45:13;;;;;;;60.00;54.50;;;;;;;-3.37;89.03;96966.61;106304;1323;22535;-59
2021/12/09 03:47:43;;;;;;;56.10;50.80;;;;;;;-3.39;88.89;96964.30;106314;1323;22386;-58
2021/12/09 03:50:13;;;;;;;57.00;50.80;;;;;;;-3.41;88.72;96958.85;106312;1318;22423;-59
2021/12/09 03:52:41;;;;;;;56.00;51.00;;;;;;;-3.39;88.84;96960.77;106282;1322;22422;-58
2021/12/09 03:55:10;;;;;;;54.30;49.30;;;;;;;-3.38;88.73;96951.30;106309;1323;23163;-59
2021/12/09 03:57:38;;;;;;;56.20;51.10;;;;;;;-3.40;88.81;96943.15;106290;1323;22517;-58
2021/12/09 04:00:09;;;;;;;52.60;47.70;;;;;;;-3.45;88.64;96934.33;106282;1323;22348;-59
2021/12/09 04:02:37;;;;;;;47.90;43.40;;;;;;;-3.48;88.57;96934.36;106301;1323;22392;-59
2021/12/09 04:05:07;;;;;;;49.10;44.50;;;;;;;-3.50;88.67;96940.06;106313;1323;22285;-58
2021/12/09 04:07:35;;;;;;;52.80;47.80;;;;;;;-3.48;88.79;96947.31;106324;1323;22411;-58
2021/12/09 04:10:05;;;;;;;53.90;49.10;;;;;;;-3.47;88.59;96947.75;106110;1321;22490;-59
2021/12/09 04:12:34;;;;;;;61.20;55.60;;;;;;;-3.49;88.69;96951.23;106295;1323;23261;-59
2021/12/09 04:15:02;;;;;;;53.80;48.80;;;;;;;-3.51;88.78;96959.11;106287;1323;22455;-59
2021/12/09 04:17:31;;;;;;;50.60;45.80;;;;;;;-3.49;88.73;96961.32;106320;1323;23028;-58
2021/12/09 04:19:59;;;;;;;53.10;48.00;;;;;;;-3.44;88.74;96965.32;106323;1323;22513;-58
2021/12/09 04:22:27;;;;;;;55.70;50.60;;;;;;;-3.42;88.65;96972.15;106308;1322;23194;-58
2021/12/09 04:24:55;;;;;;;59.10;53.70;;;;;;;-3.39;88.67;96977.20;106255;1323;23223;-57
2021/12/09 04:27:23;;;;;;;62.80;56.90;;;;;;;-3.40;88.55;96977.40;106291;1323;23116;-58
2021/12/09 04:29:52;;;;;;;54.90;49.70;;;;;;;-3.44;88.61;96973.48;106242;1323;23010;-58
2021/12/09 04:32:21;;;;;;;54.10;49.10;;;;;;;-3.46;88.55;96963.96;106278;1323;22547;-58
2021/12/09 04:34:53;;;;;;;53.00;47.90;;;;;;;-3.45;88.56;96957.66;106301;1323;22581;-58
2021/12/09 04:37:21;;;;;;;56.00;50.70;;;;;;;-3.43;88.57;96950.38;106299;1323;22569;-58
2021/12/09 04:39:49;;;;;;;57.40;52.10;;;;;;;-3.43;88.63;96942.48;106294;1323;23354;-58
2021/12/09 04:42:17;;;;;;;63.50;57.50;;;;;;;-3.48;88.50;96940.42;106302;1323;23245;-59
2021/12/09 04:44:46;;;;;;;59.50;53.90;;;;;;;-3.55;88.49;96939.23;106298;1323;22389;-58
2021/12/09 04:47:14;;;;;;;58.60;53.20;;;;;;;-3.56;88.73;96942.45;106272;1323;22491;-58
2021/12/09 04:49:42;;;;;;;55.70;50.40;;;;;;;-3.53;88.63;96945.96;106288;1323;22534;-58
2021/12/09 04:52:10;;;;;;;62.30;56.50;;;;;;;-3.51;88.58;96943.36;106306;1323;22665;-58
2021/12/09 04:54:42;;;;;;;61.90;55.80;;;;;;;-3.51;88.60;96937.35;106274;1323;22396;-58
2021/12/09 04:57:12;;;;;;;65.30;59.30;;;;;;;-3.51;88.59;96933.81;106289;1323;22992;-58
2021/12/09 04:59:41;;;;;;;57.50;50.70;;;;;;;-3.55;88.67;96937.39;106312;1323;22531;-59
2021/12/09 05:02:16;;;;;;;57.80;52.50;;;;;;;-3.53;88.61;96943.64;106289;1323;22575;-59
2021/12/09 05:04:44;;;;;;;57.30;51.90;;;;;;;-3.50;88.65;96946.23;106306;1322;22376;-59
2021/12/09 05:07:12;;;;;;;59.00;53.50;;;;;;;-3.48;88.56;96946.38;106298;1323;22281;-59
2021/12/09 05:09:49;;;;;;;63.00;57.00;;;;;;;-3.50;88.45;96946.55;106284;1323;22995;-59
2021/12/09 05:12:21;;;;;;;65.60;56.20;;;;;;;-3.55;88.47;96935.76;106252;1323;22570;-59
2021/12/09 05:14:49;;;;;;;63.90;57.30;;;;;;;-3.59;88.61;96932.77;106307;1323;22540;-59
2021/12/09 05:17:18;;;;;;;65.50;59.30;;;;;;;-3.54;88.61;96946.98;106318;1323;22582;-60
2021/12/09 05:19:47;;;;;;;60.30;54.40;;;;;;;-3.49;88.54;96956.00;106320;1323;23129;-58
2021/12/09 05:22:15;;;;;;;58.90;53.20;;;;;;;-3.48;88.51;96945.10;106251;1323;22420;-57
2021/12/09 05:24:46;;;;;;;57.10;51.40;;;;;;;-3.51;88.43;96937.99;106318;1323;22422;-57
2021/12/09 05:27:16;;;;;;;50.40;45.50;;;;;;;-3.52;88.35;96925.33;106304;1323;22282;-58
2021/12/09 05:29:46;;;;;;;50.90;45.90;;;;;;;-3.50;88.46;96917.82;106318;1323;23194;-57
2021/12/09 05:32:16;;;;;;;55.20;49.80;;;;;;;-3.48;88.51;96927.62;106275;1323;22365;-58
2021/12/09 05:34:49;;;;;;;60.10;54.30;;;;;;;-3.45;88.55;96949.50;106343;1322;22431;-59
2021/12/09 05:37:23;;;;;;;63.30;57.00;;;;;;;-3.40;88.78;96957.98;106315;1323;22497;-58
2021/12/09 05:39:53;;;;;;;65.70;59.60;;;;;;;-3.35;88.77;96961.17;106354;1323;22559;-57
2021/12/09 05:42:23;;;;;;;62.70;56.90;;;;;;;-3.33;88.71;96959.95;106344;1323;23311;-58
2021/12/09 05:44:52;;;;;;;61.10;54.80;;;;;;;-3.30;88.64;96958.91;106267;1323;23234;-58
2021/12/09 05:47:20;;;;;;;59.10;53.60;;;;;;;-3.24;88.58;96948.54;106328;1323;22380;-59
2021/12/09 05:49:49;;;;;;;62.30;56.30;;;;;;;-3.19;88.43;96928.66;106308;1323;22546;-58
2021/12/09 05:52:17;;;;;;;61.70;55.80;;;;;;;-3.18;88.39;96924.15;106313;1323;23726;-59
2021/12/09 05:54:46;;;;;;;62.70;56.40;;;;;;;-3.20;88.42;96935.70;106314;1323;23635;-58
2021/12/09 05:57:14;;;;;;;57.80;52.00;;;;;;;-3.18;88.59;96944.08;106260;1323;22527;-59
2021/12/09 05:59:43;;;;;;;56.60;51.00;;;;;;;-3.14;88.43;96942.67;106268;1323;22503;-59
2021/12/09 06:02:16;;;;;;;66.60;56.70;;;;;;;-3.08;88.46;96945.31;106327;1323;23698;-58
2021/12/09 06:04:45;;;;;;;65.30;58.60;;;;;;;-3.00;88.42;96955.23;106333;1323;23605;-59
2021/12/09 06:07:14;;;;;;;63.80;57.60;;;;;;;-2.93;88.43;96957.40;106306;1323;23107;-59
2021/12/09 06:09:42;;;;;;;65.10;58.40;;;;;;;-2.91;88.24;96961.14;106286;1323;22424;-59
2021/12/09 06:12:11;;;;;;;75.50;65.00;;;;;;;-2.90;88.50;96975.18;106295;1323;23113;-60
2021/12/09 06:14:40;;;;;;;69.70;62.60;;;;;;;-2.87;88.46;96984.35;106310;1323;22443;-59
2021/12/09 06:17:08;;;;;;;63.80;57.20;;;;;;;-2.85;88.06;96983.34;106310;1323;22282;-58
2021/12/09 06:19:36;;;;;;;65.60;58.80;;;;;;;-2.87;88.11;96984.81;106299;1323;22510;-58
2021/12/09 06:22:04;;;;;;;65.90;59.40;;;;;;;-2.84;88.01;96989.20;106245;1323;22578;-58
2021/12/09 06:24:32;;;;;;;71.00;64.10;;;;;;;-2.86;87.88;96988.12;106302;1323;22428;-58
2021/12/09 06:27:01;;;;;;;74.40;66.70;;;;;;;-2.91;87.74;96995.89;106349;1323;23233;-58
2021/12/09 06:29:32;;;;;;;93.60;61.70;;;;;;;-2.97;87.85;96994.71;106344;1323;23273;-58
2021/12/09 06:32:01;;;;;;;69.70;59.90;;;;;;;-2.98;87.91;96991.84;106277;1322;22435;-61
2021/12/09 06:34:30;;;;;;;62.50;56.00;;;;;;;-2.99;87.74;96995.57;106309;1322;23067;-58
2021/12/09 06:36:58;;;;;;;66.30;59.90;;;;;;;-2.99;87.84;96991.30;106310;1323;22590;-59
2021/12/09 06:39:26;;;;;;;66.00;59.60;;;;;;;-2.97;87.88;96985.80;106307;1323;22373;-59
2021/12/09 06:41:54;;;;;;;62.30;56.40;;;;;;;-3.00;87.77;96997.44;106302;1323;23083;-59
2021/12/09 06:44:23;;;;;;;58.20;52.70;;;;;;;-3.05;87.67;97004.08;106314;1323;23359;-59
2021/12/09 06:46:51;;;;;;;60.00;54.40;;;;;;;-3.09;87.63;96999.69;106316;1323;22496;-59
2021/12/09 06:49:19;;;;;;;56.90;51.70;;;;;;;-3.10;87.61;96991.20;106340;1323;22489;-59
2021/12/09 06:51:47;;;;;;;57.60;52.20;;;;;;;-3.09;87.70;96979.07;106330;1323;22460;-60
2021/12/09 06:54:15;;;;;;;59.90;54.30;;;;;;;-3.11;87.63;96975.29;106295;1323;22342;-59
2021/12/09 06:56:44;;;;;;;60.60;54.80;;;;;;;-3.14;87.61;96982.77;106308;1323;22503;-60
2021/12/09 06:59:12;;;;;;;55.20;50.10;;;;;;;-3.15;87.85;96987.60;106298;1323;22612;-59
2021/12/09 07:01:40;;;;;;;54.90;49.50;;;;;;;-3.13;87.66;96977.84;106162;1322;138344;-59
2021/12/09 07:04:09;;;;;;;57.00;51.10;;;;;;;-3.09;87.65;96976.45;106229;1323;22402;-59
2021/12/09 07:06:38;;;;;;;58.70;53.00;;;;;;;-3.03;87.65;96978.73;106273;1322;22249;-59
2021/12/09 07:09:06;;;;;;;61.20;55.40;;;;;;;-3.01;87.67;96973.49;106283;1323;22546;-59
2021/12/09 07:11:44;;;;;;;59.50;53.60;;;;;;;-3.01;87.70;96957.89;106291;1323;23399;-59
2021/12/09 07:14:12;;;;;;;54.80;49.20;;;;;;;-3.03;87.61;96949.25;106278;1323;22461;-60
2021/12/09 07:16:40;;;;;;;52.90;47.90;;;;;;;-3.04;87.46;96952.23;106285;1323;22615;-60
2021/12/09 07:19:09;;;;;;;52.80;47.90;;;;;;;-3.03;87.54;96955.17;106245;1323;22252;-60
2021/12/09 07:21:38;;;;;;;62.10;53.90;;;;;;;-2.99;87.62;96954.50;106263;1323;23023;-59
2021/12/09 07:24:10;;;;;;;59.20;53.50;;;;;;;-2.96;87.61;96948.34;106240;1324;22486;-60
2021/12/09 07:26:38;;;;;;;62.70;56.40;;;;;;;-2.95;87.56;96948.61;106261;1323;22401;-60
2021/12/09 07:29:06;;;;;;;55.50;50.10;;;;;;;-2.99;87.41;96948.03;106260;1323;22463;-60
2021/12/09 07:31:34;;;;;;;53.60;48.20;;;;;;;-2.98;87.46;96951.26;106275;1323;22475;-58
2021/12/09 07:34:02;;;;;;;50.50;45.70;;;;;;;-2.95;87.53;96953.11;106266;1323;22400;-59
2021/12/09 07:36:30;;;;;;;50.50;45.90;;;;;;;-2.89;87.54;96954.89;106246;1323;22513;-60
2021/12/09 07:38:59;;;;;;;50.40;45.60;;;;;;;-2.86;87.33;96961.84;106245;1324;22594;-60
2021/12/09 07:41:27;;;;;;;52.50;47.50;;;;;;;-2.86;87.13;96968.45;106310;1323;22583;-60
2021/12/09 07:43:55;;;;;;;47.40;43.10;;;;;;;-2.89;87.14;96971.91;106267;1323;22490;-60
2021/12/09 07:46:23;;;;;;;46.40;42.00;;;;;;;-2.89;87.04;96960.00;106281;1323;22463;-59
2021/12/09 07:48:51;;;;;;;47.50;43.10;;;;;;;-2.87;87.12;96950.45;106250;1323;22400;-58
2021/12/09 07:51:19;;;;;;;51.80;47.10;;;;;;;-2.86;86.96;96941.93;106261;1323;23148;-60
2021/12/09 07:53:47;;;;;;;55.30;50.00;;;;;;;-2.88;86.76;96934.71;106268;1323;22474;-60
2021/12/09 07:56:15;;;;;;;54.50;49.30;;;;;;;-2.91;87.01;96937.08;106255;1323;23228;-60
2021/12/09 07:58:44;;;;;;;51.20;46.40;;;;;;;-2.90;86.94;96943.45;106247;1323;22407;-60
2021/12/09 08:01:12;;;;;;;46.60;42.40;;;;;;;-2.85;87.00;96946.48;106268;1323;23725;-60
2021/12/09 08:03:41;;;;;;;47.60;43.20;;;;;;;-2.82;86.91;96953.77;106263;1324;23228;-58
2021/12/09 08:06:10;;;;;;;50.50;46.10;;;;;;;-2.83;86.88;96957.55;106296;1324;22299;-59
2021/12/09 08:08:39;;;;;;;50.90;45.80;;;;;;;-2.80;86.98;96958.54;106258;1323;22265;-59
2021/12/09 08:11:08;;;;;;;46.30;42.00;;;;;;;-2.77;87.14;96958.55;106263;1323;22326;-57
2021/12/09 08:13:36;;;;;;;46.70;42.50;;;;;;;-2.66;87.23;96967.17;106257;1323;22480;-58
2021/12/09 08:16:04;;;;;;;56.90;51.40;;;;;;;-2.57;87.13;96975.19;106176;1322;138288;-60
2021/12/09 08:18:43;;;;;;;63.60;57.20;;;;;;;-2.47;87.33;96977.58;106257;1323;22289;-60
2021/12/09 08:21:11;;;;;;;79.60;72.40;;;;;;;-2.40;87.07;96991.05;106311;1322;23113;-59
2021/12/09 08:23:39;;;;;;;65.70;59.80;;;;;;;-2.38;87.20;96992.51;106333;1323;22301;-59
2021/12/09 08:26:08;;;;;;;60.60;55.00;;;;;;;-2.39;86.86;96992.40;106305;1323;22266;-59
2021/12/09 08:28:36;;;;;;;60.90;55.20;;;;;;;-2.37;86.56;96988.88;106241;1323;23594;-59
2021/12/09 08:31:10;;;;;;;59.80;54.10;;;;;;;-2.35;86.89;96989.40;106263;1316;22452;-59
2021/12/09 08:33:38;;;;;;;56.40;51.10;;;;;;;-2.22;86.97;96989.19;106327;1322;22431;-58
2021/12/09 08:36:26;;;;;;;52.00;47.40;;;;;;;-2.13;86.87;96991.33;106299;1323;22635;-59
2021/12/09 08:38:54;;;;;;;53.30;48.20;;;;;;;-2.08;86.91;96991.84;106336;1323;22600;-59
2021/12/09 08:41:24;;;;;;;52.10;47.30;;;;;;;-2.03;86.76;96994.81;106326;1323;22394;-59
2021/12/09 08:43:52;;;;;;;51.50;46.40;;;;;;;-1.98;86.75;96995.70;106317;1323;22471;-59
2021/12/09 08:46:20;;;;;;;52.00;47.30;;;;;;;-1.91;86.59;96995.23;106285;1323;23176;-58
2021/12/09 08:48:48;;;;;;;55.10;50.10;;;;;;;-1.88;86.47;96990.20;106301;1323;22505;-59
2021/12/09 08:51:16;;;;;;;58.00;52.50;;;;;;;-1.86;86.38;96983.67;106330;1323;22458;-59
2021/12/09 08:54:01;;;;;;;53.40;48.50;;;;;;;-1.87;86.35;96981.88;106286;1322;22408;-59
2021/12/09 08:57:05;;;;;;;49.80;45.10;;;;;;;-1.91;86.10;96982.23;106336;1316;22635;-58
2021/12/09 08:59:40;;;;;;;49.10;44.30;;;;;;;-1.93;86.13;96986.42;106243;1322;22292;-59
2021/12/09 09:03:20;;;;;;;48.70;44.10;;;;;;;-1.90;86.33;96995.77;106319;1321;23226;-59
2021/12/09 09:06:37;;;;;;;;;;;;;;;-1.88;86.29;96995.59;106278;1321;22490;-59
2021/12/09 09:09:09;;;;;;;54.30;49.20;;;;;;;-1.85;86.26;97006.08;106306;1321;23155;-60
2021/12/09 09:11:43;;;;;;;51.60;46.80;;;;;;;-1.85;85.98;97004.30;106329;1322;22469;-60
2021/12/09 09:14:17;;;;;;;55.00;49.90;;;;;;;-1.79;86.02;96996.92;106340;1316;22431;-59
2021/12/09 09:16:50;;;;;;;56.60;51.50;;;;;;;-1.68;86.32;96981.19;106181;1320;22432;-59
2021/12/09 09:19:24;;;;;;;54.20;49.40;;;;;;;-1.57;86.45;96968.88;106310;1317;22564;-59
2021/12/09 09:21:52;;;;;;;;;;;;;;;-1.50;86.31;96965.23;106355;1323;22546;-60
2021/12/09 09:24:24;;;;;;;56.20;51.00;;;;;;;-1.50;86.39;96950.96;106366;1323;22528;-60
2021/12/09 09:26:57;;;;;;;48.50;44.00;;;;;;;-1.47;86.44;96947.36;106318;1323;22423;-60
2021/12/09 09:29:33;;;;;;;49.60;44.80;;;;;;;-1.43;86.22;96947.71;106336;1323;22484;-60
2021/12/09 09:32:19;;;;;;;46.60;42.30;;;;;;;-1.36;86.12;96935.27;106148;1316;22561;-59
2021/12/09 09:34:54;;;;;;;48.80;44.30;;;;;;;-1.33;85.81;96942.70;106305;1322;23170;-59
2021/12/09 09:37:22;;;;;;;52.30;47.30;;;;;;;-1.36;85.47;96946.70;106338;1322;23242;-59
2021/12/09 09:39:55;;;;;;;46.10;42.00;;;;;;;-1.43;85.65;96948.39;106377;1322;23145;-59
2021/12/09 09:45:14;;;;;;;52.70;47.80;;;;;;;-1.43;85.57;96957.77;106390;1322;22285;-59
2021/12/09 09:47:45;;;;;;;57.40;52.10;;;;;;;-1.42;85.48;96950.22;106124;1316;137655;-59
2021/12/09 09:50:13;;;;;;;55.30;50.40;;;;;;;-1.41;85.49;96942.04;100112;1323;8253051;-59
2021/12/09 09:52:41;;;;;;;59.20;53.80;;;;;;;-1.38;85.84;96941.91;106253;1323;23029;-59
2021/12/09 09:55:13;;;;;;;53.70;48.60;;;;;;;-1.32;85.65;96942.04;106290;1323;23282;-59
2021/12/09 09:57:44;;;;;;;50.80;46.30;;;;;;;-1.29;85.53;96947.26;106278;1323;22491;-59
2021/12/09 10:01:08;;;;;;;50.30;45.60;;;;;;;-1.24;85.29;96953.02;106181;1322;22495;-59
2021/12/09 10:03:45;;;;;;;50.40;45.90;;;;;;;-1.22;85.11;96959.77;106295;1323;22419;-60
2021/12/09 10:06:18;;;;;;;58.60;53.50;;;;;;;-1.24;85.32;96951.92;106412;1322;22468;-60
2021/12/09 10:08:47;;;;;;;57.50;52.20;;;;;;;-1.22;85.32;96929.73;106395;1322;22706;-59
2021/12/09 10:11:16;;;;;;;76.20;54.80;;;;;;;-1.21;85.18;96920.66;106318;1323;22253;-59
2021/12/09 10:13:45;;;;;;;50.80;46.00;;;;;;;-1.19;84.92;96924.96;106390;1322;22988;-60
2021/12/09 10:16:20;;;;;;;50.20;45.70;;;;;;;-1.18;84.89;96928.36;106398;1322;22471;-59
2021/12/09 10:18:52;;;;;;;46.50;42.20;;;;;;;-1.11;84.92;96934.56;106414;1322;22495;-60
2021/12/09 10:21:24;;;;;;;47.10;42.90;;;;;;;-1.03;84.73;96938.41;106277;1315;22472;-59
2021/12/09 10:24:06;;;;;;;48.30;43.70;;;;;;;-0.93;84.87;96929.36;106154;1323;138006;-60
2021/12/09 10:26:40;;;;;;;53.80;48.70;;;;;;;-0.88;84.67;96921.70;106359;1322;22355;-58
2021/12/09 10:29:26;;;;;;;57.00;51.50;;;;;;;-0.84;84.58;96913.97;106387;1322;22340;-58
2021/12/09 10:31:59;;;;;;;48.20;43.80;;;;;;;-0.83;84.32;96907.95;106387;1322;23084;-59
2021/12/09 10:34:36;;;;;;;46.30;41.90;;;;;;;-0.83;84.23;96900.48;106363;1322;23634;-59
2021/12/09 10:37:07;;;;;;;49.00;44.20;;;;;;;-0.82;84.07;96908.27;106384;1322;22519;-59
2021/12/09 10:39:42;;;;;;;52.50;47.80;;;;;;;-0.85;84.25;96903.17;106373;1319;22417;-59
2021/12/09 10:42:17;;;;;;;58.60;52.80;;;;;;;-0.82;84.20;96904.94;106347;1322;23601;-59
2021/12/09 10:44:55;;;;;;;66.00;60.00;;;;;;;-0.83;84.21;96908.95;106423;1322;23126;-60
2021/12/09 10:47:48;;;;;;;57.20;52.00;;;;;;;-0.83;84.45;96908.00;106391;1322;22482;-60
2021/12/09 10:50:53;;;;;;;;;;;;;;;;;;;;;
2021/12/09 10:56:09;;;;;;;55.60;50.70;;;;;;;-0.68;84.04;96886.87;106294;1322;138067;-60
2021/12/09 10:58:54;;;;;;;63.80;58.10;;;;;;;-0.65;83.72;96888.38;106315;1316;22314;-60
2021/12/09 11:01:31;;;;;;;67.80;57.20;;;;;;;-0.66;84.02;96894.08;106292;1319;23864;-59
2021/12/09 11:04:10;;;;;;;65.40;59.20;;;;;;;-0.62;83.95;96893.59;106323;1321;22327;-59
2021/12/09 11:07:29;;;;;;;52.20;47.30;;;;;;;-0.61;83.83;96883.13;106396;1322;23259;-59
2021/12/09 11:10:22;;;;;;;52.90;47.80;;;;;;;-0.61;83.85;96867.84;106411;1322;23318;-60
2021/12/09 11:12:58;;;;;;;50.50;45.80;;;;;;;-0.56;83.82;96861.95;106384;1322;22568;-59
2021/12/09 11:15:57;;;;;;;54.20;49.00;;;;;;;-0.51;83.85;96858.66;106403;1322;22560;-59
2021/12/09 11:18:41;;;;;;;55.50;50.70;;;;;;;-0.53;84.02;96852.23;106402;1323;22509;-59
2021/12/09 11:21:30;;;;;;;50.50;46.00;;;;;;;-0.55;83.52;96846.13;106404;1322;23124;-59
2021/12/09 11:24:14;;;;;;;49.90;45.30;;;;;;;-0.55;83.86;96850.58;106282;1324;23108;-60
2021/12/09 11:26:56;;;;;;;48.90;44.40;;;;;;;-0.52;83.73;96859.33;106389;1323;22281;-60
2021/12/09 11:30:03;;;;;;;51.70;47.20;;;;;;;-0.51;83.36;96856.92;106391;1322;22601;-61
2021/12/09 11:38:17;;;;;;;57.90;51.80;;;;;;;-0.70;83.47;96849.94;106359;1322;22394;-60
2021/12/09 11:40:56;;;;;;;;;;;;;;;-0.67;83.31;96852.23;106399;1322;23169;-59
2021/12/09 11:43:29;;;;;;;84.60;55.10;;;;;;;-0.73;83.53;96842.17;106398;1322;23110;-59
2021/12/09 11:45:59;;;;;;;64.30;57.40;;;;;;;-0.73;83.55;96844.02;106385;1322;23200;-60
2021/12/09 11:48:31;;;;;;;56.60;50.60;;;;;;;-0.74;83.78;96837.08;106360;1322;22587;-59